Time;durP1;ratioP1;P1;durP2;ratioP2;P2;SDS_P1;SDS_P2;PMS_P1;PMS_P2;Temp;Humidity;BMP_temperature;BMP_pressure;BME280_temperature;BME280_humidity;BME280_pressure;Samples;Min_cycle;Max_cycle;Signal;HPM_P1;HPM_P2
2022/04/04 00:00:24;;;;;;;7.23;6.53;;;3.20;1.00;;;;;;5118324;28;20914;-73
2022/04/04 00:02:51;;;;;;;8.20;6.10;;;3.20;1.00;;;;;;5117848;28;20452;-72
2022/04/04 00:05:17;;;;;;;6.93;6.23;;;3.10;1.00;;;;;;5117916;28;20779;-72
2022/04/04 00:07:44;;;;;;;7.20;5.87;;;3.20;1.00;;;;;;5118031;28;20456;-73
2022/04/04 00:10:11;;;;;;;8.90;6.00;;;3.10;1.00;;;;;;5118501;28;20459;-72
2022/04/04 00:12:37;;;;;;;6.07;5.47;;;3.20;1.00;;;;;;5119119;28;20491;-72
2022/04/04 00:15:06;;;;;;;6.07;5.57;;;3.20;1.00;;;;;;5117620;28;20460;-72
2022/04/04 00:17:34;;;;;;;6.50;5.90;;;3.20;1.00;;;;;;5117905;28;20456;-72
2022/04/04 00:20:01;;;;;;;8.07;6.10;;;3.20;1.00;;;;;;5117730;28;20797;-72
2022/04/04 00:22:27;;;;;;;6.70;6.00;;;3.20;1.00;;;;;;5117681;28;20449;-73
2022/04/04 00:24:55;;;;;;;6.60;5.90;;;3.20;1.00;;;;;;5117449;28;20817;-72
2022/04/04 00:27:22;;;;;;;6.90;6.20;;;3.20;1.00;;;;;;5117493;28;20471;-72
2022/04/04 00:29:48;;;;;;;7.10;6.40;;;3.20;1.00;;;;;;5116541;28;20953;-72
2022/04/04 00:32:15;;;;;;;12.40;6.00;;;3.20;1.00;;;;;;5117292;28;20448;-73
2022/04/04 00:34:43;;;;;;;6.97;5.60;;;3.20;1.00;;;;;;5117414;28;20460;-72
2022/04/04 00:37:10;;;;;;;6.20;5.60;;;3.20;1.00;;;;;;5117240;28;20452;-72
2022/04/04 00:39:36;;;;;;;6.80;6.00;;;3.20;1.00;;;;;;5117219;28;20541;-73
2022/04/04 00:42:03;;;;;;;6.43;5.43;;;3.20;1.00;;;;;;5117434;28;20452;-73
2022/04/04 00:44:30;;;;;;;6.30;5.80;;;3.20;1.00;;;;;;5117422;28;20921;-72
2022/04/04 00:46:57;;;;;;;6.93;5.20;;;3.20;1.00;;;;;;5117336;28;20464;-72
2022/04/04 00:49:24;;;;;;;9.70;5.10;;;3.20;1.00;;;;;;5116792;28;20543;-73
2022/04/04 00:51:52;;;;;;;9.40;5.00;;;3.20;1.00;;;;;;5116777;28;20456;-72
2022/04/04 00:54:20;;;;;;;5.20;4.70;;;3.20;1.00;;;;;;5116649;28;20557;-74
2022/04/04 00:56:47;;;;;;;8.50;5.73;;;3.30;1.00;;;;;;5117306;28;20465;-72
2022/04/04 00:59:18;;;;;;;7.43;6.00;;;3.30;1.00;;;;;;5116762;28;20915;-72
2022/04/04 01:01:44;;;;;;;7.03;5.13;;;3.30;1.00;;;;;;5116557;28;20445;-72
2022/04/04 01:04:16;;;;;;;11.87;6.47;;;3.30;1.00;;;;;;5117014;28;20449;-71
2022/04/04 01:06:43;;;;;;;5.63;5.10;;;3.30;1.00;;;;;;5116823;28;20445;-72
2022/04/04 01:09:14;;;;;;;5.67;5.07;;;3.30;1.00;;;;;;5121250;28;20478;-72
2022/04/04 01:12:01;;;;;;;5.23;4.50;;;3.30;1.00;;;;;;5123092;28;20731;-73
2022/04/04 01:14:28;;;;;;;5.47;4.97;;;3.30;1.00;;;;;;5122459;28;20460;-72
2022/04/04 01:16:55;;;;;;;6.00;5.40;;;3.30;1.00;;;;;;5116565;28;20934;-72
2022/04/04 01:19:21;;;;;;;6.10;5.40;;;3.30;1.00;;;;;;5116506;28;20452;-72
2022/04/04 01:21:48;;;;;;;5.63;5.03;;;3.30;1.00;;;;;;5116678;28;20448;-71
2022/04/04 01:24:19;;;;;;;6.83;6.10;;;3.20;1.00;;;;;;5116351;28;20449;-72
2022/04/04 01:26:46;;;;;;;8.43;5.73;;;3.20;1.00;;;;;;5117660;28;20447;-72
2022/04/04 01:29:13;;;;;;;7.10;5.70;;;3.20;1.00;;;;;;5116630;28;20915;-73
2022/04/04 01:31:40;;;;;;;6.27;5.70;;;3.10;1.00;;;;;;5116388;28;20907;-71
2022/04/04 01:34:07;;;;;;;6.80;5.63;;;3.10;1.00;;;;;;5116379;28;20476;-72
2022/04/04 01:36:39;;;;;;;6.30;5.47;;;3.10;1.00;;;;;;5116085;28;20453;-71
2022/04/04 01:39:06;;;;;;;8.10;6.73;;;3.10;1.00;;;;;;5116261;28;20445;-72
2022/04/04 01:41:34;;;;;;;6.60;5.60;;;3.10;1.00;;;;;;5115981;28;20513;-71
2022/04/04 01:44:01;;;;;;;8.87;5.90;;;3.10;1.00;;;;;;5116208;28;20838;-72
2022/04/04 01:46:28;;;;;;;6.73;6.10;;;3.10;1.00;;;;;;5116248;28;20826;-71
2022/04/04 01:48:56;;;;;;;7.87;6.77;;;3.00;1.00;;;;;;5115519;28;20467;-73
2022/04/04 01:51:24;;;;;;;7.00;6.20;;;3.00;1.00;;;;;;5116169;28;20456;-71
2022/04/04 01:53:53;;;;;;;8.30;6.43;;;3.00;1.00;;;;;;5115629;28;20503;-71
2022/04/04 01:56:20;;;;;;;8.70;7.00;;;3.00;1.00;;;;;;5116176;28;20759;-72
2022/04/04 01:58:49;;;;;;;7.30;6.60;;;3.00;1.00;;;;;;5115861;28;20467;-72
2022/04/04 02:01:18;;;;;;;8.00;6.97;;;2.90;1.00;;;;;;5116211;28;20472;-71
2022/04/04 02:03:46;;;;;;;8.33;7.53;;;2.90;1.00;;;;;;5115989;28;20452;-72
2022/04/04 02:06:14;;;;;;;8.93;7.57;;;3.00;1.00;;;;;;5115867;28;20787;-72
2022/04/04 02:08:42;;;;;;;8.43;7.63;;;3.00;1.00;;;;;;5115820;28;20480;-72
2022/04/04 02:11:12;;;;;;;8.00;7.20;;;3.00;1.00;;;;;;5115515;28;20921;-72
2022/04/04 02:13:40;;;;;;;8.37;7.47;;;3.00;1.00;;;;;;5115875;28;20540;-72
2022/04/04 02:16:08;;;;;;;8.07;6.73;;;3.00;1.00;;;;;;5115801;28;20532;-71
2022/04/04 02:18:36;;;;;;;7.83;7.13;;;3.00;1.00;;;;;;5115863;28;20457;-71
2022/04/04 02:21:05;;;;;;;8.90;8.00;;;3.00;1.00;;;;;;5115848;28;20453;-72
2022/04/04 02:23:32;;;;;;;9.63;8.50;;;3.00;1.00;;;;;;5115777;28;20452;-72
2022/04/04 02:25:58;;;;;;;8.37;7.30;;;3.00;1.00;;;;;;5115170;28;20910;-72
2022/04/04 02:28:26;;;;;;;7.50;6.80;;;3.00;1.00;;;;;;5115655;28;20548;-72
2022/04/04 02:30:54;;;;;;;9.53;6.07;;;3.00;1.00;;;;;;5115617;28;20452;-71
2022/04/04 02:33:23;;;;;;;7.67;6.13;;;3.00;1.00;;;;;;5115219;28;20476;-72
2022/04/04 02:35:51;;;;;;;7.37;6.67;;;3.00;1.00;;;;;;5115307;28;20825;-73
2022/04/04 02:38:18;;;;;;;7.27;6.57;;;3.00;1.00;;;;;;5115586;28;20452;-73
2022/04/04 02:40:45;;;;;;;8.07;7.27;;;3.00;1.00;;;;;;5115503;28;20495;-72
2022/04/04 02:43:12;;;;;;;12.67;6.53;;;2.90;1.00;;;;;;5115571;28;20457;-73
2022/04/04 02:45:39;;;;;;;7.77;6.80;;;2.90;1.00;;;;;;5115561;28;20456;-71
2022/04/04 02:48:07;;;;;;;10.77;7.10;;;2.90;1.00;;;;;;5115967;28;20487;-72
2022/04/04 02:50:36;;;;;;;12.20;7.07;;;2.90;1.00;;;;;;5115259;28;20461;-72
2022/04/04 02:53:03;;;;;;;10.90;8.17;;;2.90;1.00;;;;;;5117817;28;20456;-74
2022/04/04 02:58:15;;;;;;;10.10;7.23;;;2.80;1.00;;;;;;5119062;28;20423;-71
2022/04/04 03:00:41;;;;;;;8.10;7.30;;;2.80;1.00;;;;;;5119033;28;20456;-72
2022/04/04 03:03:08;;;;;;;9.97;8.10;;;2.90;1.00;;;;;;5119096;28;20463;-71
2022/04/04 03:05:37;;;;;;;8.00;7.20;;;2.90;1.00;;;;;;5118962;28;20826;-72
2022/04/04 03:08:05;;;;;;;9.13;7.87;;;2.90;1.00;;;;;;5118637;28;21015;-72
2022/04/04 03:10:32;;;;;;;7.50;6.80;;;2.90;1.00;;;;;;5118989;28;20484;-73
2022/04/04 03:12:59;;;;;;;8.67;7.77;;;2.90;1.00;;;;;;5118629;28;20972;-70
2022/04/04 03:15:26;;;;;;;10.03;7.67;;;2.90;1.00;;;;;;5119012;28;20466;-72
2022/04/04 03:17:55;;;;;;;9.60;7.13;;;2.90;1.00;;;;;;5118959;28;20456;-72
2022/04/04 03:20:23;;;;;;;10.20;7.60;;;2.80;1.00;;;;;;5120282;28;20476;-71
2022/04/04 03:22:55;;;;;;;8.73;7.83;;;2.90;1.00;;;;;;5119494;28;20791;-71
2022/04/04 03:25:22;;;;;;;8.27;7.20;;;2.90;1.00;;;;;;5118181;28;20452;-71
2022/04/04 03:27:49;;;;;;;8.23;7.27;;;2.90;1.00;;;;;;5118488;28;20934;-73
2022/04/04 03:30:18;;;;;;;12.27;8.00;;;2.90;1.00;;;;;;5118473;28;20459;-71
2022/04/04 03:32:45;;;;;;;8.97;7.37;;;2.90;1.00;;;;;;5118396;28;20826;-72
2022/04/04 03:35:14;;;;;;;8.33;7.30;;;2.90;1.00;;;;;;5118261;28;20788;-71
2022/04/04 03:37:44;;;;;;;9.60;7.77;;;2.90;1.00;;;;;;5118432;28;20448;-72
2022/04/04 03:40:13;;;;;;;9.07;7.67;;;2.90;1.00;;;;;;5118541;28;20459;-72
2022/04/04 03:42:42;;;;;;;8.27;7.57;;;2.90;1.00;;;;;;5118906;28;20467;-72
2022/04/04 03:45:11;;;;;;;10.03;7.50;;;2.90;1.00;;;;;;5117789;28;20911;-72
2022/04/04 03:47:38;;;;;;;8.07;7.03;;;2.90;1.00;;;;;;5118165;28;20457;-72
2022/04/04 03:50:06;;;;;;;8.60;7.20;;;2.90;1.00;;;;;;5118042;28;20456;-72
2022/04/04 03:52:34;;;;;;;7.90;7.10;;;2.90;1.00;;;;;;5118131;28;20921;-72
2022/04/04 03:55:01;;;;;;;8.63;7.33;;;2.90;1.00;;;;;;5117562;28;20584;-72
2022/04/04 03:57:29;;;;;;;7.90;6.70;;;2.90;1.00;;;;;;5118463;28;20453;-71
2022/04/04 03:59:56;;;;;;;8.80;7.33;;;2.90;1.00;;;;;;5117863;28;20464;-71
2022/04/04 04:02:23;;;;;;;9.00;7.37;;;2.90;1.00;;;;;;5117966;28;20456;-72
2022/04/04 04:04:50;;;;;;;8.30;7.50;;;2.90;1.00;;;;;;5117827;28;20444;-71
2022/04/04 04:07:18;;;;;;;9.10;6.87;;;2.90;1.00;;;;;;5117718;28;20456;-73
2022/04/04 04:09:45;;;;;;;8.20;7.40;;;2.90;1.00;;;;;;5117919;28;20484;-71
2022/04/04 04:12:12;;;;;;;7.60;6.80;;;2.90;1.00;;;;;;5117468;28;20463;-72
2022/04/04 04:14:41;;;;;;;10.60;7.60;;;2.90;1.00;;;;;;5117840;28;20981;-71
2022/04/04 04:17:08;;;;;;;7.70;7.00;;;2.90;1.00;;;;;;5118291;28;20448;-73
2022/04/04 04:22:34;;;;;;;9.03;7.27;;;2.90;1.00;;;;;;5034863;28;20440;-70
2022/04/04 04:25:01;;;;;;;9.80;7.10;;;2.90;1.00;;;;;;5098707;28;20449;-72
2022/04/04 04:27:37;;;;;;;8.73;6.90;;;2.90;1.00;;;;;;5117360;28;20463;-72
2022/04/04 04:30:06;;;;;;;11.50;7.30;;;2.90;1.00;;;;;;5116794;28;20480;-72
2022/04/04 04:32:33;;;;;;;8.20;7.20;;;2.90;1.00;;;;;;5117183;28;20457;-72
2022/04/04 04:35:00;;;;;;;9.10;7.20;;;2.90;1.00;;;;;;5117399;28;20542;-73
2022/04/04 04:37:27;;;;;;;8.20;6.60;;;3.00;1.00;;;;;;5117341;28;20813;-72
2022/04/04 04:39:54;;;;;;;11.20;7.40;;;3.00;1.00;;;;;;5117692;28;20452;-71
2022/04/04 04:42:22;;;;;;;8.37;7.53;;;2.90;1.00;;;;;;5116937;28;20457;-70
2022/04/04 04:44:49;;;;;;;8.73;6.97;;;2.90;1.00;;;;;;5116612;28;20513;-71
2022/04/04 04:47:18;;;;;;;10.67;6.90;;;2.90;1.00;;;;;;5116248;28;20460;-71
2022/04/04 04:49:45;;;;;;;10.17;7.30;;;2.90;1.00;;;;;;5116437;28;20840;-72
2022/04/04 04:52:12;;;;;;;7.97;7.17;;;2.90;1.00;;;;;;5116645;28;20551;-72
2022/04/04 04:54:39;;;;;;;8.10;7.40;;;2.90;1.00;;;;;;5115895;28;20571;-72
2022/04/04 04:57:06;;;;;;;7.87;6.90;;;3.00;1.00;;;;;;5116307;28;20455;-72
2022/04/04 04:59:33;;;;;;;8.23;6.90;;;2.90;1.00;;;;;;5116503;28;20456;-72
2022/04/04 05:02:00;;;;;;;7.37;6.73;;;2.90;1.00;;;;;;5116186;28;20529;-72
2022/04/04 05:04:28;;;;;;;7.67;6.73;;;2.90;1.00;;;;;;5116187;28;20453;-71
2022/04/04 05:06:55;;;;;;;7.97;6.90;;;2.90;1.00;;;;;;5116337;28;20452;-72
2022/04/04 05:09:22;;;;;;;8.00;7.20;;;2.90;1.00;;;;;;5116176;28;20491;-72
2022/04/04 05:11:49;;;;;;;9.47;7.30;;;3.00;1.00;;;;;;5116247;28;20456;-72
2022/04/04 05:14:16;;;;;;;7.30;6.57;;;3.00;1.00;;;;;;5115823;28;20977;-72
2022/04/04 05:16:43;;;;;;;7.50;6.73;;;3.00;1.00;;;;;;5115650;28;20460;-71
2022/04/04 05:19:11;;;;;;;8.40;6.87;;;3.10;1.00;;;;;;5116350;28;20456;-72
2022/04/04 05:21:40;;;;;;;9.70;7.30;;;3.10;1.00;;;;;;5116001;28;20886;-71
2022/04/04 05:24:08;;;;;;;7.60;6.90;;;3.20;1.00;;;;;;5116197;28;20452;-72
2022/04/04 05:26:35;;;;;;;8.23;7.43;;;3.20;1.00;;;;;;5115684;28;20467;-71
2022/04/04 05:29:02;;;;;;;7.93;6.70;;;3.20;1.00;;;;;;5116777;28;20799;-71
2022/04/04 05:31:30;;;;;;;7.43;6.53;;;3.30;26.30;;;;;;5116425;28;20452;-71
2022/04/04 05:33:57;;;;;;;7.60;6.77;;;3.30;99.90;;;;;;5119926;28;20453;-71
2022/04/04 05:36:24;;;;;;;7.83;7.13;;;3.30;99.90;;;;;;5118206;28;20457;-72
2022/04/04 05:38:52;;;;;;;7.57;6.30;;;3.40;99.90;;;;;;5122092;28;20778;-73
2022/04/04 05:41:19;;;;;;;9.30;7.93;;;3.50;99.90;;;;;;5117034;28;20782;-72
2022/04/04 05:43:47;;;;;;;7.13;6.40;;;3.50;1.00;;;;;;5115547;28;20456;-72
2022/04/04 05:46:15;;;;;;;8.87;6.73;;;3.50;1.00;;;;;;5115297;28;20452;-73
2022/04/04 05:48:42;;;;;;;10.87;6.50;;;3.60;1.00;;;;;;5115024;28;20460;-72
2022/04/04 05:51:09;;;;;;;9.93;7.20;;;3.60;1.00;;;;;;5115078;28;20487;-71
2022/04/04 05:53:36;;;;;;;11.87;7.67;;;3.70;99.90;;;;;;5114974;28;20942;-72
2022/04/04 05:56:04;;;;;;;8.30;6.73;;;3.70;99.90;;;;;;5114916;28;20563;-73
2022/04/04 05:58:31;;;;;;;8.60;6.80;;;3.70;99.90;;;;;;5115137;28;20464;-72
2022/04/04 06:00:58;;;;;;;8.07;7.23;;;3.80;99.90;;;;;;5114954;28;20452;-72
2022/04/04 06:03:25;;;;;;;10.50;7.57;;;3.80;99.90;;;;;;5114994;28;20503;-71
2022/04/04 06:05:52;;;;;;;9.87;7.40;;;3.80;99.90;;;;;;5115079;28;20531;-72
2022/04/04 06:08:19;;;;;;;8.77;7.87;;;3.90;1.00;;;;;;5114945;28;20452;-71
2022/04/04 06:10:46;;;;;;;8.17;7.37;;;3.90;1.00;;;;;;5114551;28;20937;-72
2022/04/04 06:13:15;;;;;;;7.90;7.10;;;4.00;99.90;;;;;;5114836;28;20483;-72
2022/04/04 06:15:43;;;;;;;7.80;7.07;;;4.00;99.90;;;;;;5114990;28;20477;-74
2022/04/04 06:18:10;;;;;;;11.03;7.23;;;4.10;99.90;;;;;;5115173;28;20452;-72
2022/04/04 06:20:38;;;;;;;9.03;7.80;;;4.10;99.90;;;;;;5115011;28;20790;-73
2022/04/04 06:23:05;;;;;;;10.30;7.80;;;4.20;99.90;;;;;;5114797;28;20853;-72
2022/04/04 06:25:32;;;;;;;8.40;7.60;;;4.20;99.90;;;;;;5115543;28;20468;-72
2022/04/04 06:27:59;;;;;;;8.97;8.07;;;4.30;99.90;;;;;;5114588;28;20463;-72
2022/04/04 06:30:28;;;;;;;8.87;7.73;;;4.30;99.90;;;;;;5115193;28;20768;-73
2022/04/04 06:32:55;;;;;;;8.47;7.57;;;4.40;99.90;;;;;;5115208;28;20453;-71
2022/04/04 06:35:23;;;;;;;10.03;8.87;;;4.40;99.90;;;;;;5114754;28;20484;-72
2022/04/04 06:37:51;;;;;;;9.17;7.53;;;4.50;1.00;;;;;;5114865;28;20475;-72
2022/04/04 06:40:18;;;;;;;8.97;7.90;;;4.50;1.00;;;;;;5114787;28;20551;-72
2022/04/04 06:42:45;;;;;;;9.10;8.20;;;4.60;99.90;;;;;;5114749;28;20452;-72
2022/04/04 06:45:17;;;;;;;10.07;7.60;;;4.70;90.00;;;;;;5114464;28;20459;-72
2022/04/04 06:47:45;;;;;;;11.33;8.40;;;4.70;1.00;;;;;;5114874;28;20533;-72
2022/04/04 06:50:13;;;;;;;11.87;8.10;;;4.70;1.00;;;;;;5114293;28;20521;-71
2022/04/04 06:52:40;;;;;;;11.60;9.33;;;4.70;99.90;;;;;;5114929;28;20851;-70
2022/04/04 06:55:11;;;;;;;9.03;8.10;;;4.80;90.00;;;;;;5114773;28;20488;-72
2022/04/04 06:57:38;;;;;;;10.10;8.60;;;4.80;1.00;;;;;;5116785;28;20480;-73
2022/04/04 07:00:08;;;;;;;9.37;8.43;;;4.80;1.00;;;;;;5115010;28;20459;-72
2022/04/04 07:02:36;;;;;;;10.43;9.20;;;4.90;99.90;;;;;;5114605;28;20836;-72
2022/04/04 07:05:05;;;;;;;10.33;9.23;;;5.00;99.90;;;;;;5114225;28;20449;-72
2022/04/04 07:07:32;;;;;;;14.47;9.50;;;5.00;1.00;;;;;;5114766;28;20539;-72
2022/04/04 07:09:59;;;;;;;14.50;9.83;;;5.10;1.00;;;;;;5114340;28;20463;-73
2022/04/04 07:12:27;;;;;;;10.43;8.80;;;5.00;1.00;;;;;;5114367;28;20488;-73
2022/04/04 07:14:54;;;;;;;9.80;8.80;;;5.00;1.00;;;;;;5116244;28;20507;-73
2022/04/04 07:17:21;;;;;;;10.50;9.40;;;5.00;1.00;;;;;;5114927;28;20492;-72
2022/04/04 07:19:48;;;;;;;10.40;9.23;;;5.10;99.90;;;;;;5114416;28;20456;-72
2022/04/04 07:22:16;;;;;;;10.70;9.60;;;5.10;1.00;;;;;;5114237;28;20448;-72
2022/04/04 07:24:43;;;;;;;10.80;9.53;;;5.20;99.90;;;;;;5114209;28;20481;-72
2022/04/04 07:27:10;;;;;;;10.90;9.80;;;5.30;14.40;;;;;;5114203;28;20527;-71
2022/04/04 07:29:37;;;;;;;11.87;10.37;;;5.30;1.00;;;;;;5114458;28;20456;-72
2022/04/04 07:32:05;;;;;;;11.50;10.30;;;5.30;1.00;;;;;;5114554;28;20490;-72
2022/04/04 07:34:31;;;;;;;11.67;10.50;;;5.30;1.00;;;;;;5114006;28;20923;-72
2022/04/04 07:36:58;;;;;;;12.13;10.80;;;5.30;1.00;;;;;;5114105;28;20456;-72
2022/04/04 07:39:26;;;;;;;11.73;10.20;;;5.30;1.00;;;;;;5117407;28;20547;-71
2022/04/04 07:41:53;;;;;;;13.20;11.13;;;5.40;1.00;;;;;;5117721;28;20540;-72
2022/04/04 07:44:20;;;;;;;11.70;10.50;;;5.40;99.90;;;;;;5117664;28;20521;-72
2022/04/04 07:46:47;;;;;;;11.77;9.70;;;5.50;99.90;;;;;;5117247;28;20456;-72
2022/04/04 07:49:14;;;;;;;13.10;10.93;;;5.60;99.90;;;;;;5117610;28;20469;-72
2022/04/04 07:51:40;;;;;;;11.83;10.60;;;5.70;99.90;;;;;;5117537;28;20461;-71
2022/04/04 07:54:07;;;;;;;13.27;11.20;;;5.70;99.90;;;;;;5116879;28;20982;-71
2022/04/04 07:56:35;;;;;;;15.03;10.20;;;5.80;40.00;;;;;;5117246;28;20467;-72
2022/04/04 07:59:02;;;;;;;13.47;12.03;;;5.90;1.00;;;;;;5117263;28;20830;-72
2022/04/04 08:01:28;;;;;;;11.80;10.03;;;6.00;1.00;;;;;;5117150;28;20476;-72
2022/04/04 08:03:55;;;;;;;13.90;10.30;;;6.10;1.00;;;;;;5117031;28;20467;-72
2022/04/04 08:06:22;;;;;;;14.53;9.77;;;6.10;1.00;;;;;;5117034;28;20471;-71
2022/04/04 08:08:48;;;;;;;12.30;10.30;;;6.10;1.00;;;;;;5116993;28;20517;-72
2022/04/04 08:11:15;;;;;;;11.07;9.93;;;6.10;1.00;;;;;;5117076;28;20456;-72
2022/04/04 08:13:45;;;;;;;11.63;9.93;;;6.20;1.00;;;;;;5116932;28;20460;-72
2022/04/04 08:16:12;;;;;;;12.63;10.30;;;6.20;1.00;;;;;;5116717;28;20978;-73
2022/04/04 08:18:39;;;;;;;12.30;10.03;;;6.10;1.00;;;;;;5117216;28;20468;-72
2022/04/04 08:21:05;;;;;;;11.60;10.03;;;6.10;1.00;;;;;;5116681;28;20556;-72
2022/04/04 08:23:32;;;;;;;11.80;10.60;;;6.20;1.00;;;;;;5117277;28;20456;-71
2022/04/04 08:25:59;;;;;;;12.07;10.43;;;6.20;1.00;;;;;;5117079;28;20449;-72
2022/04/04 08:28:27;;;;;;;10.63;9.53;;;6.20;99.90;;;;;;5117276;28;20936;-72
2022/04/04 08:30:56;;;;;;;11.13;9.20;;;6.30;99.90;;;;;;5116882;28;20452;-72
2022/04/04 08:33:24;;;;;;;10.40;9.40;;;6.30;99.90;;;;;;5116808;28;20452;-72
2022/04/04 08:35:53;;;;;;;10.20;9.17;;;6.40;99.90;;;;;;5116512;28;20870;-71
2022/04/04 08:38:20;;;;;;;11.53;9.50;;;6.40;99.90;;;;;;5116876;28;20514;-71
2022/04/04 08:40:48;;;;;;;10.73;9.63;;;6.40;99.90;;;;;;5116516;28;20525;-72
2022/04/04 08:43:17;;;;;;;10.90;9.10;;;6.50;99.90;;;;;;5116462;28;20551;-72
2022/04/04 08:45:46;;;;;;;11.27;9.57;;;6.60;99.90;;;;;;5116362;28;20460;-72
2022/04/04 08:48:15;;;;;;;12.27;9.67;;;6.80;99.90;;;;;;5116716;28;20792;-72
2022/04/04 08:50:42;;;;;;;10.47;9.07;;;6.90;99.90;;;;;;5115338;28;20798;-72
2022/04/04 08:53:09;;;;;;;11.70;8.83;;;6.80;99.90;;;;;;5116390;28;20452;-73
2022/04/04 08:55:37;;;;;;;9.77;8.87;;;6.80;99.90;;;;;;5116382;28;20488;-73
2022/04/04 08:58:03;;;;;;;10.40;9.20;;;6.90;99.90;;;;;;5116208;28;20918;-72
2022/04/04 09:00:30;;;;;;;11.47;8.73;;;6.90;99.90;;;;;;5116033;28;20930;-73
2022/04/04 09:03:02;;;;;;;12.90;9.50;;;6.90;93.90;;;;;;5116022;28;20514;-72
2022/04/04 09:05:32;;;;;;;12.60;9.10;;;6.90;80.00;;;;;;5116107;28;20484;-72
2022/04/04 09:08:01;;;;;;;9.67;8.47;;;6.90;69.40;;;;;;5115806;28;20456;-72
2022/04/04 09:10:36;;;;;;;14.43;8.63;;;7.00;48.10;;;;;;5116414;28;20500;-73
2022/04/04 09:13:08;;;;;;;11.53;8.80;;;6.90;36.30;;;;;;5116984;28;20447;-72
2022/04/04 09:15:53;;;;;;;12.67;8.27;;;6.90;19.60;;;;;;5116709;28;20477;-72
2022/04/04 09:18:25;;;;;;;9.23;8.30;;;6.90;18.90;;;;;;5116486;28;20451;-72
2022/04/04 09:20:53;;;;;;;8.57;7.73;;;6.80;10.70;;;;;;5115754;28;20447;-73
2022/04/04 09:23:20;;;;;;;8.50;7.60;;;6.80;8.40;;;;;;5115553;28;20457;-72
2022/04/04 09:25:47;;;;;;;9.80;8.43;;;6.80;5.40;;;;;;5115687;28;20456;-73
2022/04/04 09:28:18;;;;;;;14.40;8.00;;;6.90;4.80;;;;;;5115527;28;20461;-73
2022/04/04 09:31:03;;;;;;;11.93;8.00;;;6.90;1.00;;;;;;5116092;28;20581;-72
2022/04/04 09:33:36;;;;;;;9.50;8.50;;;7.00;1.00;;;;;;5115909;28;20505;-73
2022/04/04 09:36:04;;;;;;;11.57;7.43;;;7.00;1.00;;;;;;5116086;28;20551;-71
2022/04/04 09:38:33;;;;;;;11.83;8.63;;;7.00;1.00;;;;;;5116255;28;20456;-72
2022/04/04 09:41:05;;;;;;;10.20;8.50;;;6.90;1.00;;;;;;5115912;28;20464;-72
2022/04/04 09:43:49;;;;;;;9.50;8.60;;;7.00;1.00;;;;;;5115876;28;20440;-72
2022/04/04 09:46:18;;;;;;;11.10;9.20;;;7.10;1.00;;;;;;5115631;28;20449;-72
2022/04/04 09:49:03;;;;;;;10.43;8.33;;;7.10;1.00;;;;;;5115568;28;20474;-72
2022/04/04 09:51:41;;;;;;;9.70;8.33;;;7.20;1.00;;;;;;5119231;28;20455;-73
2022/04/04 09:54:09;;;;;;;12.90;9.40;;;7.20;1.00;;;;;;5116125;28;20914;-74
2022/04/04 09:56:36;;;;;;;11.80;9.27;;;7.30;1.00;;;;;;5119664;28;20877;-73
2022/04/04 09:59:04;;;;;;;10.27;8.47;;;7.50;1.00;;;;;;5123013;28;20460;-74
2022/04/04 10:01:33;;;;;;;11.03;9.27;;;7.50;1.00;;;;;;5123130;28;20536;-73
2022/04/04 10:04:02;;;;;;;11.73;8.97;;;7.70;1.00;;;;;;5117474;28;20539;-72
2022/04/04 10:06:30;;;;;;;10.93;9.20;;;7.80;1.00;;;;;;5115333;28;20835;-73
2022/04/04 10:08:59;;;;;;;14.93;9.60;;;8.00;1.00;;;;;;5115496;28;20474;-73
2022/04/04 10:11:27;;;;;;;10.90;9.30;;;8.00;1.00;;;;;;5117697;28;20468;-73
2022/04/04 10:13:55;;;;;;;11.80;9.27;;;8.20;1.00;;;;;;5115838;28;20456;-72
2022/04/04 10:16:23;;;;;;;12.50;9.13;;;8.30;1.00;;;;;;5115287;28;20476;-72
2022/04/04 10:18:51;;;;;;;14.43;8.83;;;8.20;1.00;;;;;;5115844;28;20488;-73
2022/04/04 10:21:18;;;;;;;11.50;9.10;;;8.20;1.00;;;;;;5118511;28;20463;-70
2022/04/04 10:23:45;;;;;;;10.00;8.60;;;8.20;1.00;;;;;;5117165;28;20458;-76
2022/04/04 10:26:15;;;;;;;10.73;8.93;;;8.10;1.00;;;;;;5115172;28;20779;-72
2022/04/04 10:28:44;;;;;;;15.77;9.40;;;8.10;1.00;;;;;;5115294;28;20433;-74
2022/04/04 10:31:13;;;;;;;9.37;8.40;;;8.00;1.00;;;;;;5116831;28;20732;-73
2022/04/04 10:33:40;;;;;;;10.47;8.27;;;7.90;1.00;;;;;;5114972;28;20787;-73
2022/04/04 10:36:08;;;;;;;19.30;9.00;;;7.90;1.00;;;;;;5115110;28;20484;-73
2022/04/04 10:38:36;;;;;;;10.33;8.70;;;7.80;1.00;;;;;;5115788;28;20468;-73
2022/04/04 10:41:07;;;;;;;11.27;8.93;;;7.80;1.00;;;;;;5114910;28;20452;-73
2022/04/04 10:43:36;;;;;;;13.77;8.93;;;7.80;1.00;;;;;;5115193;28;20523;-73
2022/04/04 10:46:04;;;;;;;16.23;8.87;;;7.80;1.00;;;;;;5114505;28;20452;-72
2022/04/04 10:48:33;;;;;;;11.50;9.23;;;7.90;1.00;;;;;;5114802;28;20556;-72
2022/04/04 10:51:10;;;;;;;10.73;8.73;;;8.10;1.00;;;;;;5115042;28;20757;-72
2022/04/04 10:53:40;;;;;;;11.30;8.90;;;8.20;1.00;;;;;;5114580;28;20440;-72
2022/04/04 10:56:11;;;;;;;8.97;8.13;;;8.30;1.00;;;;;;5114411;28;20830;-72
2022/04/04 10:58:39;;;;;;;15.30;9.47;;;8.30;1.00;;;;;;5114601;28;20445;-72
2022/04/04 11:01:09;;;;;;;13.43;8.97;;;8.30;1.00;;;;;;5114855;28;20783;-73
2022/04/04 11:03:38;;;;;;;8.83;7.93;;;8.30;1.00;;;;;;5116972;28;20460;-74
2022/04/04 11:09:11;;;;;;;11.13;7.97;;;8.40;1.00;;;;;;5114811;28;20427;-74
2022/04/04 11:11:49;;;;;;;8.23;7.30;;;8.40;1.00;;;;;;5114570;28;20446;-74
2022/04/04 11:14:19;;;;;;;14.07;6.93;;;8.40;1.00;;;;;;5117499;28;20447;-74
2022/04/04 11:17:33;;;;;;;9.87;7.63;;;8.30;1.00;;;;;;5118663;28;20484;-73
2022/04/04 11:20:10;;;;;;;10.83;7.03;;;8.30;1.00;;;;;;5120269;28;20429;-73
2022/04/04 11:22:42;;;;;;;11.13;7.13;;;8.30;1.00;;;;;;5118751;28;20433;-73
2022/04/04 11:25:15;;;;;;;11.73;7.37;;;8.20;1.00;;;;;;5119670;28;20505;-73
2022/04/04 11:27:47;;;;;;;14.10;6.37;;;8.10;1.00;;;;;;5118547;28;20467;-73
2022/04/04 11:30:17;;;;;;;8.70;6.77;;;8.00;1.00;;;;;;5118320;28;20446;-74
2022/04/04 11:32:46;;;;;;;10.33;6.80;;;8.00;1.00;;;;;;5118768;28;20456;-74
2022/04/04 11:35:15;;;;;;;9.40;6.50;;;7.90;1.00;;;;;;5118127;28;20464;-72
2022/04/04 11:37:44;;;;;;;7.30;6.60;;;7.90;1.00;;;;;;5118126;28;20629;-74
2022/04/04 11:40:14;;;;;;;12.00;7.27;;;7.90;1.00;;;;;;5119494;28;20467;-73
2022/04/04 11:42:44;;;;;;;7.97;6.43;;;8.00;1.00;;;;;;5118506;28;20551;-73
2022/04/04 11:45:17;;;;;;;6.70;5.57;;;8.10;1.00;;;;;;5119281;28;20918;-73
2022/04/04 11:47:50;;;;;;;13.17;6.70;;;8.20;1.00;;;;;;5118131;28;20460;-73
2022/04/04 11:50:17;;;;;;;7.67;6.20;;;8.20;1.00;;;;;;5117617;28;20437;-72
2022/04/04 11:52:49;;;;;;;13.60;6.40;;;8.10;1.00;;;;;;5117713;28;20456;-72
2022/04/04 11:55:17;;;;;;;6.37;5.70;;;8.00;1.00;;;;;;5117260;28;20515;-74
2022/04/04 11:57:46;;;;;;;6.10;5.43;;;7.80;1.00;;;;;;5117533;28;20942;-73
2022/04/04 12:00:20;;;;;;;7.33;5.20;;;7.70;1.00;;;;;;5117778;28;20914;-72
2022/04/04 12:02:48;;;;;;;9.27;4.33;;;7.70;1.00;;;;;;5117138;28;20779;-73
2022/04/04 12:05:17;;;;;;;4.60;4.20;;;7.80;1.00;;;;;;5117399;28;20910;-73
2022/04/04 12:07:44;;;;;;;13.17;4.77;;;7.70;1.00;;;;;;5117380;28;20851;-73
2022/04/04 12:10:16;;;;;;;6.20;4.53;;;7.70;1.00;;;;;;5116962;28;20453;-74
2022/04/04 12:12:43;;;;;;;13.60;4.70;;;7.60;1.00;;;;;;5117414;28;20501;-73
2022/04/04 12:15:11;;;;;;;5.97;5.07;;;7.60;1.00;;;;;;5117021;28;20517;-73
2022/04/04 12:17:39;;;;;;;13.97;4.63;;;7.60;1.00;;;;;;5117388;28;20476;-73
2022/04/04 12:20:14;;;;;;;9.00;4.90;;;7.40;1.00;;;;;;5116985;28;20452;-73
2022/04/04 12:25:26;;;;;;;6.77;5.30;;;6.80;99.90;;;;;;5116147;28;20503;-73
2022/04/04 12:27:57;;;;;;;13.17;4.93;;;6.50;99.90;;;;;;5117516;28;20456;-74
2022/04/04 12:30:33;;;;;;;8.60;4.30;;;6.20;99.90;;;;;;5116979;28;20461;-73
2022/04/04 12:33:14;;;;;;;5.30;4.80;;;6.00;99.90;;;;;;5116264;28;20455;-72
2022/04/04 12:35:45;;;;;;;5.30;4.80;;;5.90;1.00;;;;;;5116742;28;20447;-73
2022/04/04 12:38:24;;;;;;;13.33;5.00;;;5.80;1.00;;;;;;5116890;28;20792;-72
2022/04/04 12:41:10;;;;;;;7.00;5.40;;;5.70;99.90;;;;;;5116634;28;20500;-74
2022/04/04 12:43:38;;;;;;;6.40;5.30;;;5.60;71.30;;;;;;5116757;28;20465;-73
2022/04/04 12:46:07;;;;;;;7.73;5.60;;;5.50;53.50;;;;;;5116225;28;20467;-71
2022/04/04 12:48:41;;;;;;;7.27;6.50;;;5.50;1.00;;;;;;5116828;28;20487;-72
2022/04/04 12:51:08;;;;;;;10.23;6.50;;;5.50;1.00;;;;;;5117249;28;20445;-73
2022/04/04 12:53:48;;;;;;;9.33;5.67;;;5.40;99.90;;;;;;5116714;28;20456;-72
2022/04/04 12:56:16;;;;;;;9.27;7.00;;;5.20;99.90;;;;;;5116448;28;20480;-75
2022/04/04 12:58:43;;;;;;;9.37;6.73;;;5.10;99.90;;;;;;5117603;28;20456;-73
2022/04/04 13:01:15;;;;;;;10.30;6.83;;;5.00;99.90;;;;;;5118167;28;20448;-73
2022/04/04 13:03:52;;;;;;;11.23;8.47;;;4.70;99.90;;;;;;5117250;28;20533;-72
2022/04/04 13:06:20;;;;;;;15.57;8.60;;;4.50;99.90;;;;;;5116795;28;20436;-73
2022/04/04 13:08:55;;;;;;;9.80;7.87;;;4.20;99.90;;;;;;5116394;28;20448;-73
2022/04/04 13:11:22;;;;;;;14.30;9.70;;;4.00;99.90;;;;;;5116245;28;20915;-73
2022/04/04 13:14:13;;;;;;;11.77;8.40;;;3.90;99.90;;;;;;5116381;28;20476;-73
2022/04/04 13:16:42;;;;;;;12.40;8.83;;;3.80;99.90;;;;;;5091313;28;20563;-73
2022/04/04 13:19:11;;;;;;;13.73;10.07;;;3.70;99.90;;;;;;5116403;28;20457;-72